createdAt,value
2022-07-25T00:02:04.670Z,21.63
2022-07-25T00:04:34.303Z,21.57
2022-07-25T00:07:02.865Z,21.54
2022-07-25T00:09:29.607Z,21.50
2022-07-25T00:11:56.272Z,21.45
2022-07-25T00:14:22.967Z,21.47
2022-07-25T00:16:49.646Z,21.54
2022-07-25T00:19:16.389Z,21.58
2022-07-25T00:21:43.151Z,21.58
2022-07-25T00:24:10.488Z,21.49
2022-07-25T00:26:40.296Z,21.47
2022-07-25T00:29:07.669Z,21.42
2022-07-25T00:31:34.510Z,21.35
2022-07-25T00:34:01.540Z,21.28
2022-07-25T00:36:28.216Z,21.09
2022-07-25T00:38:54.881Z,20.87
2022-07-25T00:41:21.643Z,20.79
2022-07-25T00:43:48.421Z,20.80
2022-07-25T00:46:18.819Z,20.79
2022-07-25T00:48:47.698Z,20.74
2022-07-25T00:51:16.223Z,20.67
2022-07-25T00:53:43.643Z,20.60
2022-07-25T00:56:10.501Z,20.43
2022-07-25T00:58:37.611Z,20.42
2022-07-25T01:01:04.852Z,20.36
2022-07-25T01:03:31.701Z,20.33
2022-07-25T01:05:59.174Z,20.37
2022-07-25T01:08:25.943Z,20.40
2022-07-25T01:10:53.090Z,20.45
2022-07-25T01:13:19.757Z,20.54
2022-07-25T01:15:47.900Z,20.51
2022-07-25T01:18:14.702Z,20.55
2022-07-25T01:20:41.423Z,20.49
2022-07-25T01:23:08.105Z,20.46
2022-07-25T01:25:34.815Z,20.44
2022-07-25T01:28:01.530Z,20.42
2022-07-25T01:30:28.365Z,20.40
2022-07-25T01:32:55.187Z,20.37
2022-07-25T01:35:21.964Z,20.30
2022-07-25T01:37:48.896Z,20.26
2022-07-25T01:40:15.675Z,20.21
2022-07-25T01:42:43.606Z,20.10
2022-07-25T01:45:12.127Z,20.07
2022-07-25T01:47:39.490Z,20.01
2022-07-25T01:50:07.171Z,19.95
2022-07-25T01:52:33.835Z,19.85
2022-07-25T01:55:00.550Z,19.84
2022-07-25T01:57:31.049Z,19.82
2022-07-25T01:59:58.591Z,19.81
2022-07-25T02:02:25.475Z,19.76
2022-07-25T02:04:52.330Z,19.64
2022-07-25T02:07:19.124Z,19.59
2022-07-25T02:09:45.910Z,19.54
2022-07-25T02:12:12.668Z,19.48
2022-07-25T02:14:39.608Z,19.36
2022-07-25T02:17:06.427Z,19.24
2022-07-25T02:19:33.351Z,19.18
2022-07-25T02:22:00.689Z,19.18
2022-07-25T02:24:27.598Z,19.19
2022-07-25T02:26:54.401Z,19.14
2022-07-25T02:29:21.880Z,19.10
2022-07-25T02:31:49.311Z,19.06
2022-07-25T02:34:16.328Z,19.03
2022-07-25T02:36:43.367Z,18.98
2022-07-25T02:39:10.175Z,18.92
2022-07-25T02:41:36.974Z,18.82
2022-07-25T02:44:05.587Z,18.78
2022-07-25T02:46:33.314Z,18.78
2022-07-25T02:49:00.564Z,18.79
2022-07-25T02:51:27.578Z,18.71
2022-07-25T02:53:57.838Z,18.67
2022-07-25T02:56:26.073Z,18.64
2022-07-25T02:58:56.444Z,18.62
2022-07-25T03:01:23.231Z,18.64
2022-07-25T03:03:50.334Z,18.63
2022-07-25T03:06:17.402Z,18.67
2022-07-25T03:08:44.137Z,18.57
2022-07-25T03:11:12.249Z,18.45
2022-07-25T03:13:38.979Z,18.44
2022-07-25T03:16:06.902Z,18.45
2022-07-25T03:18:33.617Z,18.44
2022-07-25T03:21:00.418Z,18.45
2022-07-25T03:23:28.413Z,18.46
2022-07-25T03:25:55.918Z,18.45
2022-07-25T03:28:23.220Z,18.43
2022-07-25T03:30:50.045Z,18.43
2022-07-25T03:33:16.752Z,18.40
2022-07-25T03:35:45.367Z,18.35
2022-07-25T03:38:12.069Z,18.31
2022-07-25T03:40:38.804Z,18.29
2022-07-25T03:43:05.668Z,18.29
2022-07-25T03:45:32.472Z,18.29
2022-07-25T03:47:59.156Z,18.29
2022-07-25T03:50:25.939Z,18.31
2022-07-25T03:52:52.635Z,18.30
2022-07-25T03:55:19.391Z,18.26
2022-07-25T03:57:47.142Z,18.27
2022-07-25T04:00:14.142Z,18.26
2022-07-25T04:02:40.985Z,18.21
2022-07-25T04:05:08.781Z,18.18
2022-07-25T04:07:36.190Z,18.25
2022-07-25T04:10:04.836Z,18.25
2022-07-25T04:12:31.835Z,18.25
2022-07-25T04:14:58.611Z,18.35
2022-07-25T04:17:25.903Z,18.37
2022-07-25T04:19:52.901Z,18.39
2022-07-25T04:22:19.557Z,18.39
2022-07-25T04:24:46.419Z,18.42
2022-07-25T04:27:13.104Z,18.45
2022-07-25T04:29:39.783Z,18.50
2022-07-25T04:32:06.923Z,18.55
2022-07-25T04:34:33.674Z,18.53
2022-07-25T04:37:00.379Z,18.55
2022-07-25T04:39:27.055Z,18.57
2022-07-25T04:41:53.728Z,18.62
2022-07-25T04:44:20.413Z,18.65
2022-07-25T04:46:47.144Z,18.66
2022-07-25T04:49:14.032Z,18.68
2022-07-25T04:51:40.774Z,18.68
2022-07-25T04:54:07.915Z,18.72
2022-07-25T04:56:35.053Z,18.73
2022-07-25T04:59:06.738Z,18.77
2022-07-25T05:01:34.802Z,18.92
2022-07-25T05:04:01.961Z,18.97
2022-07-25T05:06:28.736Z,19.11
2022-07-25T05:08:55.666Z,19.26
2022-07-25T05:11:22.410Z,19.43
2022-07-25T05:13:49.140Z,19.59
2022-07-25T05:16:16.147Z,19.79
2022-07-25T05:18:42.963Z,19.97
2022-07-25T05:21:11.554Z,20.14
2022-07-25T05:23:38.322Z,20.32
2022-07-25T05:26:05.217Z,20.37
2022-07-25T05:28:31.861Z,20.37
2022-07-25T05:30:58.605Z,20.39
2022-07-25T05:33:26.614Z,20.53
2022-07-25T05:35:53.459Z,20.59
2022-07-25T05:38:20.510Z,20.55
2022-07-25T05:40:48.086Z,20.67
2022-07-25T05:43:14.806Z,20.73
2022-07-25T05:45:41.529Z,20.74
2022-07-25T05:48:08.193Z,20.75
2022-07-25T05:50:37.122Z,20.84
2022-07-25T05:53:03.795Z,20.99
2022-07-25T05:55:30.534Z,21.17
2022-07-25T05:57:57.294Z,21.45
2022-07-25T06:00:24.309Z,21.49
2022-07-25T06:02:51.453Z,21.65
2022-07-25T06:05:18.262Z,21.71
2022-07-25T06:07:45.021Z,21.76
2022-07-25T06:10:11.844Z,21.80
2022-07-25T06:12:38.547Z,21.98
2022-07-25T06:15:07.859Z,22.14
2022-07-25T06:17:39.500Z,22.39
2022-07-25T06:20:07.017Z,22.69
2022-07-25T06:22:34.161Z,22.76
2022-07-25T06:25:03.201Z,23.08
2022-07-25T06:27:29.842Z,23.26
2022-07-25T06:29:56.723Z,23.23
2022-07-25T06:32:23.492Z,23.41
2022-07-25T06:34:50.215Z,23.57
2022-07-25T06:37:17.000Z,23.76
2022-07-25T06:39:45.884Z,23.91
2022-07-25T06:42:12.963Z,23.99
2022-07-25T06:44:39.688Z,24.09
2022-07-25T06:47:10.577Z,24.24
2022-07-25T06:49:37.403Z,24.23
2022-07-25T06:52:04.716Z,24.37
2022-07-25T06:54:31.577Z,24.45
2022-07-25T06:56:58.253Z,24.68
2022-07-25T06:59:25.525Z,24.90
2022-07-25T07:01:52.398Z,25.08
2022-07-25T07:04:19.121Z,25.18
2022-07-25T07:06:45.909Z,25.16
2022-07-25T07:09:12.665Z,25.32
2022-07-25T07:11:39.515Z,25.66
2022-07-25T07:14:06.552Z,25.94
2022-07-25T07:16:33.638Z,26.17
2022-07-25T07:19:00.370Z,26.15
2022-07-25T07:21:27.057Z,26.07
2022-07-25T07:23:53.934Z,26.04
2022-07-25T07:26:21.448Z,26.05
2022-07-25T07:28:48.166Z,26.46
2022-07-25T07:31:18.018Z,26.70
2022-07-25T07:33:45.693Z,26.81
2022-07-25T07:36:12.736Z,26.96
2022-07-25T07:38:40.106Z,27.09
2022-07-25T07:41:07.025Z,27.04
2022-07-25T07:43:33.757Z,26.96
2022-07-25T07:46:01.425Z,27.59
2022-07-25T07:48:32.935Z,27.42
2022-07-25T07:51:01.326Z,27.35
2022-07-25T07:53:47.042Z,27.61
2022-07-25T07:56:14.969Z,27.69
2022-07-25T07:58:42.033Z,27.85
2022-07-25T08:01:08.847Z,27.95
2022-07-25T08:03:36.130Z,28.12
2022-07-25T08:06:03.724Z,28.36
2022-07-25T08:08:31.532Z,28.71
2022-07-25T08:10:59.552Z,28.98
2022-07-25T08:13:31.546Z,29.02
2022-07-25T08:16:01.778Z,29.27
2022-07-25T08:18:30.082Z,29.35
2022-07-25T08:20:57.489Z,29.55
2022-07-25T08:23:25.746Z,29.55
2022-07-25T08:25:52.528Z,29.63
2022-07-25T08:28:20.348Z,29.96
2022-07-25T08:30:47.981Z,30.22
2022-07-25T08:33:16.319Z,30.44
2022-07-25T08:35:54.628Z,30.81
2022-07-25T08:38:23.886Z,30.61
2022-07-25T08:40:50.942Z,30.68
2022-07-25T08:43:18.844Z,30.72
2022-07-25T08:45:47.825Z,30.96
2022-07-25T08:48:17.930Z,31.12
2022-07-25T08:50:45.968Z,31.39
2022-07-25T08:56:11.152Z,31.48
2022-07-25T08:58:40.901Z,31.54
2022-07-25T09:01:08.190Z,31.55
2022-07-25T09:03:36.354Z,31.78
2022-07-25T09:06:14.426Z,31.81
2022-07-25T09:09:00.393Z,32.10
2022-07-25T09:11:35.635Z,32.35
2022-07-25T09:14:09.051Z,32.66
2022-07-25T09:16:43.188Z,33.03
2022-07-25T09:19:20.613Z,33.41
2022-07-25T09:22:04.599Z,33.62
2022-07-25T09:24:32.424Z,33.72
2022-07-25T09:27:01.359Z,34.04
2022-07-25T09:29:32.946Z,34.11
2022-07-25T09:32:00.671Z,34.26
2022-07-25T09:34:33.942Z,34.44
2022-07-25T09:37:04.950Z,34.61
2022-07-25T09:39:35.470Z,34.58
2022-07-25T09:42:02.594Z,34.79
2022-07-25T09:44:32.291Z,34.91
2022-07-25T09:47:09.500Z,35.12
2022-07-25T09:49:44.044Z,35.73
2022-07-25T09:52:12.207Z,35.92
2022-07-25T09:54:40.121Z,35.76
2022-07-25T09:57:07.121Z,35.84
2022-07-25T09:59:34.921Z,35.92
2022-07-25T10:02:11.217Z,36.29
2022-07-25T10:04:50.022Z,36.42
2022-07-25T10:07:20.604Z,36.21
2022-07-25T10:09:49.801Z,36.19
2022-07-25T10:12:22.158Z,36.40
2022-07-25T10:15:10.057Z,36.57
2022-07-25T10:17:38.501Z,36.52
2022-07-25T10:20:08.172Z,36.64
2022-07-25T10:22:56.434Z,36.45
2022-07-25T10:25:24.074Z,36.37
2022-07-25T10:28:00.981Z,36.37
2022-07-25T10:30:35.544Z,36.47
2022-07-25T10:33:04.829Z,36.42
2022-07-25T10:35:31.673Z,36.51
2022-07-25T10:38:02.669Z,36.68
2022-07-25T10:40:42.887Z,36.68
2022-07-25T10:43:21.302Z,36.67
2022-07-25T10:45:56.859Z,36.84
2022-07-25T10:48:27.860Z,36.59
2022-07-25T10:51:07.976Z,36.73
2022-07-25T10:53:55.119Z,37.10
2022-07-25T10:56:27.841Z,37.32
2022-07-25T10:58:58.002Z,37.27
2022-07-25T11:01:33.711Z,37.07
2022-07-25T11:04:03.170Z,36.91
2022-07-25T11:06:31.389Z,36.94
2022-07-25T11:09:00.318Z,37.11
2022-07-25T11:11:38.527Z,37.35
2022-07-25T11:14:14.151Z,37.41
2022-07-25T11:16:40.878Z,37.18
2022-07-25T11:19:27.921Z,36.89
2022-07-25T11:21:57.178Z,36.73
2022-07-25T11:24:44.896Z,36.80
2022-07-25T11:27:20.200Z,37.01
2022-07-25T11:29:46.915Z,37.14
2022-07-25T11:32:14.283Z,37.39
2022-07-25T11:34:48.426Z,37.44
2022-07-25T11:37:18.342Z,37.33
2022-07-25T11:39:46.738Z,37.38
2022-07-25T11:42:18.431Z,37.28
2022-07-25T11:44:50.910Z,37.23
2022-07-25T11:47:31.945Z,37.27
2022-07-25T11:50:01.000Z,37.27
2022-07-25T11:52:31.468Z,37.43
2022-07-25T11:55:00.946Z,37.76
2022-07-25T11:57:32.224Z,37.63
2022-07-25T12:00:00.501Z,37.65
2022-07-25T12:02:32.529Z,37.62
2022-07-25T12:05:01.622Z,37.64
2022-07-25T12:07:41.468Z,37.88
2022-07-25T12:10:11.627Z,37.94
2022-07-25T12:12:55.553Z,37.98
2022-07-25T12:15:25.249Z,37.99
2022-07-25T12:17:53.226Z,37.13
2022-07-25T12:20:23.162Z,36.82
2022-07-25T12:22:52.030Z,36.73
2022-07-25T12:25:19.252Z,37.32
2022-07-25T12:27:46.408Z,37.77
2022-07-25T12:30:13.692Z,37.80
2022-07-25T12:32:41.517Z,36.77
2022-07-25T12:35:10.555Z,36.59
2022-07-25T12:37:37.557Z,35.99
2022-07-25T12:40:06.215Z,35.55
2022-07-25T12:42:32.897Z,34.99
2022-07-25T12:44:59.676Z,34.77
2022-07-25T12:47:28.333Z,35.02
2022-07-25T12:49:55.304Z,34.94
2022-07-25T12:52:22.712Z,34.98
2022-07-25T12:54:49.384Z,35.64
2022-07-25T12:57:17.291Z,35.73
2022-07-25T12:59:44.000Z,35.53
2022-07-25T13:02:11.084Z,36.06
2022-07-25T13:04:37.880Z,36.20
2022-07-25T13:07:05.050Z,36.19
2022-07-25T13:09:32.151Z,36.41
2022-07-25T13:11:59.400Z,36.14
2022-07-25T13:14:26.421Z,36.34
2022-07-25T13:16:53.563Z,36.35
2022-07-25T13:19:20.491Z,36.26
2022-07-25T13:21:47.471Z,36.56
2022-07-25T13:24:14.124Z,37.20
2022-07-25T13:26:40.999Z,37.26
2022-07-25T13:29:08.976Z,37.63
2022-07-25T13:31:41.193Z,37.35
2022-07-25T13:34:09.092Z,36.54
2022-07-25T13:36:38.124Z,35.75
2022-07-25T13:39:05.904Z,35.67
2022-07-25T13:41:33.131Z,36.19
2022-07-25T13:44:00.442Z,36.59
2022-07-25T13:46:27.124Z,36.25
2022-07-25T13:48:55.751Z,36.36
2022-07-25T13:51:22.505Z,36.31
2022-07-25T13:53:49.874Z,36.73
2022-07-25T13:56:16.725Z,36.95
2022-07-25T13:58:43.834Z,36.51
2022-07-25T14:01:14.801Z,36.02
2022-07-25T14:03:41.523Z,35.63
2022-07-25T14:06:11.246Z,35.19
2022-07-25T14:08:40.930Z,34.84
2022-07-25T14:11:08.452Z,34.89
2022-07-25T14:13:36.526Z,34.90
2022-07-25T14:16:03.649Z,34.80
2022-07-25T14:18:31.949Z,34.78
2022-07-25T14:20:59.645Z,34.66
2022-07-25T14:23:29.943Z,34.43
2022-07-25T14:25:58.644Z,34.23
2022-07-25T14:28:25.764Z,34.11
2022-07-25T14:30:52.561Z,34.14
2022-07-25T14:33:19.230Z,34.42
2022-07-25T14:35:45.911Z,34.98
2022-07-25T14:38:12.588Z,35.51
2022-07-25T14:40:41.493Z,35.81
2022-07-25T14:43:08.553Z,36.00
2022-07-25T14:45:37.138Z,35.92
2022-07-25T14:48:07.101Z,35.29
2022-07-25T14:50:33.900Z,34.71
2022-07-25T14:53:00.564Z,34.40
2022-07-25T14:55:27.303Z,34.29
2022-07-25T14:57:54.040Z,34.19
2022-07-25T15:00:22.795Z,33.88
2022-07-25T15:02:51.563Z,33.55
2022-07-25T15:05:18.304Z,33.32
2022-07-25T15:07:44.990Z,33.14
2022-07-25T15:10:11.968Z,33.12
2022-07-25T15:12:38.845Z,33.18
2022-07-25T15:15:07.741Z,33.36
2022-07-25T15:17:34.398Z,33.79
2022-07-25T15:20:01.076Z,34.13
2022-07-25T15:22:27.818Z,34.15
2022-07-25T15:27:41.178Z,33.79
2022-07-25T15:30:08.306Z,33.61
2022-07-25T15:32:35.073Z,33.45
2022-07-25T15:35:01.820Z,33.22
2022-07-25T15:37:29.500Z,33.14
2022-07-25T15:39:56.180Z,33.11
2022-07-25T15:42:28.617Z,33.09
2022-07-25T15:45:15.047Z,33.13
2022-07-25T15:47:45.206Z,33.23
2022-07-25T15:50:15.669Z,33.22
2022-07-25T15:52:42.477Z,33.06
2022-07-25T15:55:09.578Z,32.95
2022-07-25T15:57:36.871Z,32.62
2022-07-25T16:00:08.262Z,32.36
2022-07-25T16:02:35.616Z,32.26
2022-07-25T16:05:03.553Z,32.31
2022-07-25T16:07:30.233Z,32.38
2022-07-25T16:09:57.224Z,32.49
2022-07-25T16:12:28.317Z,32.41
2022-07-25T16:14:55.576Z,32.35
2022-07-25T16:17:22.561Z,32.28
2022-07-25T16:19:49.652Z,32.09
2022-07-25T16:22:16.341Z,31.99
2022-07-25T16:24:43.083Z,31.91
2022-07-25T16:27:10.085Z,31.84
2022-07-25T16:29:37.606Z,31.90
2022-07-25T16:32:05.554Z,31.92
2022-07-25T16:34:32.640Z,31.87
2022-07-25T16:37:00.260Z,31.91
2022-07-25T16:39:27.056Z,31.79
2022-07-25T16:41:53.829Z,31.73
2022-07-25T16:44:20.839Z,31.71
2022-07-25T16:46:47.605Z,31.57
2022-07-25T16:49:15.582Z,31.51
2022-07-25T16:51:45.862Z,31.42
2022-07-25T16:54:12.558Z,31.26
2022-07-25T16:56:39.939Z,31.17
2022-07-25T16:59:08.421Z,31.08
2022-07-25T17:01:35.828Z,31.01
2022-07-25T17:04:02.721Z,30.98
2022-07-25T17:06:29.608Z,30.99
2022-07-25T17:08:56.515Z,30.96
2022-07-25T17:11:23.239Z,30.92
2022-07-25T17:13:50.055Z,30.89
2022-07-25T17:16:16.851Z,30.84
2022-07-25T17:18:43.568Z,30.71
2022-07-25T17:21:10.695Z,30.64
2022-07-25T17:23:37.477Z,30.53
2022-07-25T17:26:05.450Z,30.28
2022-07-25T17:28:32.462Z,30.02
2022-07-25T17:30:59.364Z,29.79
2022-07-25T17:33:26.418Z,29.57
2022-07-25T17:35:53.451Z,29.48
2022-07-25T17:38:25.383Z,29.39
2022-07-25T17:40:52.706Z,29.24
2022-07-25T17:43:19.749Z,29.17
2022-07-25T17:45:46.626Z,29.07
2022-07-25T17:48:13.384Z,28.95
2022-07-25T17:50:40.066Z,28.89
2022-07-25T17:53:06.744Z,28.80
2022-07-25T17:55:38.349Z,28.69
2022-07-25T17:58:05.849Z,28.67
2022-07-25T18:00:32.546Z,28.59
2022-07-25T18:02:59.644Z,28.57
2022-07-25T18:05:26.885Z,28.57
2022-07-25T18:07:54.034Z,28.50
2022-07-25T18:10:23.675Z,28.42
2022-07-25T18:12:50.597Z,28.28
2022-07-25T18:15:17.383Z,28.21
2022-07-25T18:17:45.401Z,28.09
2022-07-25T18:20:14.236Z,28.02
2022-07-25T18:22:41.580Z,27.97
2022-07-25T18:25:11.353Z,27.91
2022-07-25T18:27:40.888Z,27.87
2022-07-25T18:30:08.283Z,27.85
2022-07-25T18:32:35.536Z,27.76
2022-07-25T18:35:02.389Z,27.65
2022-07-25T18:37:29.163Z,27.51
2022-07-25T18:39:55.845Z,27.46
2022-07-25T18:42:26.332Z,27.38
2022-07-25T18:44:56.275Z,27.31
2022-07-25T18:47:34.970Z,27.28
2022-07-25T18:50:01.987Z,27.28
2022-07-25T18:52:35.090Z,27.18
2022-07-25T18:55:07.715Z,27.04
2022-07-25T18:57:35.406Z,26.94
2022-07-25T19:00:03.438Z,26.83
2022-07-25T19:02:30.670Z,26.74
2022-07-25T19:04:57.463Z,26.64
2022-07-25T19:07:24.347Z,26.59
2022-07-25T19:09:51.034Z,26.58
2022-07-25T19:12:17.750Z,26.54
2022-07-25T19:14:44.660Z,26.51
2022-07-25T19:17:11.396Z,26.43
2022-07-25T19:19:38.067Z,26.38
2022-07-25T19:22:04.734Z,26.39
2022-07-25T19:24:31.453Z,26.37
2022-07-25T19:26:58.990Z,26.31
2022-07-25T19:29:26.760Z,26.30
2022-07-25T19:31:53.685Z,26.30
2022-07-25T19:34:20.373Z,26.32
2022-07-25T19:36:47.112Z,26.28
2022-07-25T19:39:17.445Z,26.21
2022-07-25T19:41:47.006Z,26.15
2022-07-25T19:44:14.376Z,26.17
2022-07-25T19:46:41.156Z,26.11
2022-07-25T19:49:08.036Z,26.07
2022-07-25T19:51:34.819Z,26.02
2022-07-25T19:54:07.653Z,25.97
2022-07-25T19:56:35.150Z,25.88
2022-07-25T19:59:02.152Z,25.80
2022-07-25T20:01:29.707Z,25.73
2022-07-25T20:03:56.381Z,25.66
2022-07-25T20:06:24.736Z,25.58
2022-07-25T20:08:51.450Z,25.45
2022-07-25T20:11:18.124Z,25.42
2022-07-25T20:13:44.905Z,25.40
2022-07-25T20:16:12.007Z,25.27
2022-07-25T20:18:38.761Z,25.24
2022-07-25T20:21:06.026Z,25.19
2022-07-25T20:23:32.753Z,25.12
2022-07-25T20:26:00.746Z,25.06
2022-07-25T20:28:27.506Z,24.97
2022-07-25T20:30:55.995Z,24.97
2022-07-25T20:33:26.923Z,24.85
2022-07-25T20:35:54.926Z,24.79
2022-07-25T20:38:23.170Z,24.73
2022-07-25T20:40:51.313Z,24.74
2022-07-25T20:43:18.536Z,24.71
2022-07-25T20:45:45.749Z,24.65
2022-07-25T20:48:14.279Z,24.51
2022-07-25T20:50:40.994Z,24.40
2022-07-25T20:53:08.422Z,24.39
2022-07-25T20:55:35.702Z,24.36
2022-07-25T20:58:03.181Z,24.32
2022-07-25T21:00:30.765Z,24.27
2022-07-25T21:02:58.849Z,24.18
2022-07-25T21:05:26.507Z,24.13
2022-07-25T21:07:53.560Z,24.04
2022-07-25T21:10:20.575Z,23.93
2022-07-25T21:12:47.456Z,23.87
2022-07-25T21:15:15.008Z,23.91
2022-07-25T21:17:42.056Z,23.83
2022-07-25T21:20:11.332Z,23.80
2022-07-25T21:22:38.078Z,23.84
2022-07-25T21:25:05.622Z,23.81
2022-07-25T21:27:32.252Z,23.77
2022-07-25T21:29:58.985Z,23.73
2022-07-25T21:32:25.867Z,23.66
2022-07-25T21:34:52.606Z,23.62
2022-07-25T21:37:19.408Z,23.48
2022-07-25T21:39:46.124Z,23.42
2022-07-25T21:42:13.236Z,23.37
2022-07-25T21:44:41.345Z,23.35
2022-07-25T21:47:09.015Z,23.37
2022-07-25T21:49:55.389Z,23.34
2022-07-25T21:52:30.316Z,23.25
2022-07-25T21:55:03.947Z,23.17
2022-07-25T21:57:31.210Z,23.06
2022-07-25T21:59:58.192Z,23.02
2022-07-25T22:02:24.962Z,23.00
2022-07-25T22:04:51.916Z,22.96
2022-07-25T22:07:18.775Z,22.90
2022-07-25T22:09:45.494Z,22.84
2022-07-25T22:12:12.594Z,22.85
2022-07-25T22:14:39.386Z,22.86
2022-07-25T22:17:06.308Z,22.93
2022-07-25T22:19:33.624Z,22.95
2022-07-25T22:22:00.464Z,22.95
2022-07-25T22:24:27.293Z,22.94
2022-07-25T22:26:54.058Z,22.92
2022-07-25T22:31:47.710Z,22.84
2022-07-25T22:34:14.424Z,22.83
2022-07-25T22:36:41.109Z,22.83
2022-07-25T22:39:08.116Z,22.86
2022-07-25T22:41:35.150Z,22.85
2022-07-25T22:44:01.811Z,22.82
2022-07-25T22:46:30.065Z,22.78
2022-07-25T22:48:58.075Z,22.74
2022-07-25T22:51:25.668Z,22.78
2022-07-25T22:53:52.677Z,22.80
2022-07-25T22:56:19.439Z,22.78
2022-07-25T22:58:49.082Z,22.79
2022-07-25T23:01:19.666Z,22.68
2022-07-25T23:03:47.190Z,22.67
2022-07-25T23:06:13.868Z,22.67
2022-07-25T23:08:40.529Z,22.70
2022-07-25T23:11:08.294Z,22.71
2022-07-25T23:13:35.980Z,22.70
2022-07-25T23:16:03.631Z,22.66
2022-07-25T23:18:31.742Z,22.68
2022-07-25T23:20:58.832Z,22.66
2022-07-25T23:23:25.701Z,22.68
2022-07-25T23:25:52.512Z,22.69
2022-07-25T23:28:19.315Z,22.65
2022-07-25T23:30:46.078Z,22.62
2022-07-25T23:33:12.759Z,22.57
2022-07-25T23:35:39.586Z,22.54
2022-07-25T23:38:06.301Z,22.56
2022-07-25T23:40:33.200Z,22.52
2022-07-25T23:43:00.022Z,22.48
2022-07-25T23:45:28.093Z,22.49
2022-07-25T23:47:56.616Z,22.51
2022-07-25T23:50:24.512Z,22.45
2022-07-25T23:52:52.151Z,22.46
2022-07-25T23:55:19.031Z,22.36
2022-07-25T23:57:45.741Z,22.33
